sensor_id;sensor_type;location;lat;lon;timestamp;pressure;altitude;pressure_sealevel;temperature;humidity
18755;BME280;35061;47.664;9.166;2024-02-23T00:02:27;99787.52;;;5.45;100.00
18755;BME280;35061;47.664;9.166;2024-02-23T00:04:55;99778.20;;;5.45;100.00
18755;BME280;35061;47.664;9.166;2024-02-23T00:07:23;99764.50;;;5.43;100.00
18755;BME280;35061;47.664;9.166;2024-02-23T00:09:51;99764.17;;;5.41;100.00
18755;BME280;35061;47.664;9.166;2024-02-23T00:12:19;99745.27;;;5.38;100.00
18755;BME280;35061;47.664;9.166;2024-02-23T00:14:47;99753.48;;;5.36;100.00
18755;BME280;35061;47.664;9.166;2024-02-23T00:17:15;99739.45;;;5.33;100.00
18755;BME280;35061;47.664;9.166;2024-02-23T00:19:45;99748.28;;;5.35;100.00
18755;BME280;35061;47.664;9.166;2024-02-23T00:22:14;99740.07;;;5.37;100.00
18755;BME280;35061;47.664;9.166;2024-02-23T00:24:42;99744.98;;;5.36;100.00
18755;BME280;35061;47.664;9.166;2024-02-23T00:27:10;99746.55;;;5.37;100.00
18755;BME280;35061;47.664;9.166;2024-02-23T00:29:38;99741.15;;;5.39;100.00
18755;BME280;35061;47.664;9.166;2024-02-23T00:32:06;99723.62;;;5.41;100.00
18755;BME280;35061;47.664;9.166;2024-02-23T00:34:34;99708.98;;;5.42;100.00
18755;BME280;35061;47.664;9.166;2024-02-23T00:37:02;99711.82;;;5.42;100.00
18755;BME280;35061;47.664;9.166;2024-02-23T00:39:31;99707.17;;;5.45;100.00
18755;BME280;35061;47.664;9.166;2024-02-23T00:42:00;99716.04;;;5.47;100.00
18755;BME280;35061;47.664;9.166;2024-02-23T00:44:28;99721.73;;;5.47;100.00
18755;BME280;35061;47.664;9.166;2024-02-23T00:46:56;99735.40;;;5.49;100.00
18755;BME280;35061;47.664;9.166;2024-02-23T00:49:28;99735.23;;;5.52;100.00
18755;BME280;35061;47.664;9.166;2024-02-23T00:51:56;99747.40;;;5.53;100.00
18755;BME280;35061;47.664;9.166;2024-02-23T00:54:24;99736.80;;;5.53;100.00
18755;BME280;35061;47.664;9.166;2024-02-23T00:56:52;99733.50;;;5.55;100.00
18755;BME280;35061;47.664;9.166;2024-02-23T00:59:23;99742.30;;;5.57;100.00
18755;BME280;35061;47.664;9.166;2024-02-23T01:01:51;99748.73;;;5.57;100.00
18755;BME280;35061;47.664;9.166;2024-02-23T01:04:19;99732.52;;;5.58;100.00
18755;BME280;35061;47.664;9.166;2024-02-23T01:06:47;99738.47;;;5.60;100.00
18755;BME280;35061;47.664;9.166;2024-02-23T01:09:15;99740.56;;;5.59;100.00
18755;BME280;35061;47.664;9.166;2024-02-23T01:11:48;99756.78;;;5.59;100.00
18755;BME280;35061;47.664;9.166;2024-02-23T01:14:16;99768.16;;;5.59;100.00
18755;BME280;35061;47.664;9.166;2024-02-23T01:16:44;99789.61;;;5.60;100.00
18755;BME280;35061;47.664;9.166;2024-02-23T01:19:12;99787.59;;;5.61;100.00
18755;BME280;35061;47.664;9.166;2024-02-23T01:21:41;99798.45;;;5.62;100.00
18755;BME280;35061;47.664;9.166;2024-02-23T01:24:09;99793.54;;;5.63;100.00
18755;BME280;35061;47.664;9.166;2024-02-23T01:26:37;99813.13;;;5.61;100.00
18755;BME280;35061;47.664;9.166;2024-02-23T01:29:08;99810.28;;;5.61;100.00
18755;BME280;35061;47.664;9.166;2024-02-23T01:31:36;99816.46;;;5.59;100.00
18755;BME280;35061;47.664;9.166;2024-02-23T01:34:04;99818.65;;;5.64;100.00
18755;BME280;35061;47.664;9.166;2024-02-23T01:36:33;99816.55;;;5.65;100.00
18755;BME280;35061;47.664;9.166;2024-02-23T01:39:01;99815.28;;;5.66;100.00
18755;BME280;35061;47.664;9.166;2024-02-23T01:41:30;99833.73;;;5.70;100.00
18755;BME280;35061;47.664;9.166;2024-02-23T01:43:58;99854.26;;;5.75;100.00
18755;BME280;35061;47.664;9.166;2024-02-23T01:46:26;99844.16;;;5.73;100.00
18755;BME280;35061;47.664;9.166;2024-02-23T01:48:54;99860.44;;;5.64;100.00
18755;BME280;35061;47.664;9.166;2024-02-23T01:51:23;99864.79;;;5.50;100.00
18755;BME280;35061;47.664;9.166;2024-02-23T01:53:52;99842.78;;;5.35;100.00
18755;BME280;35061;47.664;9.166;2024-02-23T01:56:20;99860.44;;;5.30;100.00
18755;BME280;35061;47.664;9.166;2024-02-23T01:58:49;99860.87;;;5.13;100.00
18755;BME280;35061;47.664;9.166;2024-02-23T02:01:17;99886.44;;;5.04;100.00
18755;BME280;35061;47.664;9.166;2024-02-23T02:03:45;99897.03;;;4.94;100.00
18755;BME280;35061;47.664;9.166;2024-02-23T02:06:14;99853.84;;;4.81;100.00
18755;BME280;35061;47.664;9.166;2024-02-23T02:08:42;99868.84;;;4.72;100.00
18755;BME280;35061;47.664;9.166;2024-02-23T02:11:10;99865.70;;;4.60;100.00
18755;BME280;35061;47.664;9.166;2024-02-23T02:13:38;99876.59;;;4.53;100.00
18755;BME280;35061;47.664;9.166;2024-02-23T02:16:06;99889.67;;;4.50;100.00
18755;BME280;35061;47.664;9.166;2024-02-23T02:18:34;99875.98;;;4.39;100.00
18755;BME280;35061;47.664;9.166;2024-02-23T02:21:02;99875.19;;;4.39;100.00
18755;BME280;35061;47.664;9.166;2024-02-23T02:23:31;99891.08;;;4.36;100.00
18755;BME280;35061;47.664;9.166;2024-02-23T02:25:59;99882.74;;;4.32;100.00
18755;BME280;35061;47.664;9.166;2024-02-23T02:28:27;99877.70;;;4.37;100.00
18755;BME280;35061;47.664;9.166;2024-02-23T02:30:55;99879.60;;;4.30;100.00
18755;BME280;35061;47.664;9.166;2024-02-23T02:33:23;99873.13;;;4.30;100.00
18755;BME280;35061;47.664;9.166;2024-02-23T02:35:51;99877.09;;;4.32;100.00
18755;BME280;35061;47.664;9.166;2024-02-23T02:38:19;99872.97;;;4.33;100.00
18755;BME280;35061;47.664;9.166;2024-02-23T02:40:47;99869.83;;;4.31;100.00
18755;BME280;35061;47.664;9.166;2024-02-23T02:43:15;99874.08;;;4.36;100.00
18755;BME280;35061;47.664;9.166;2024-02-23T02:45:44;99879.77;;;4.36;100.00
18755;BME280;35061;47.664;9.166;2024-02-23T02:48:12;99877.38;;;4.35;100.00
18755;BME280;35061;47.664;9.166;2024-02-23T02:50:41;99864.79;;;4.36;100.00
18755;BME280;35061;47.664;9.166;2024-02-23T02:53:09;99862.73;;;4.36;100.00
18755;BME280;35061;47.664;9.166;2024-02-23T02:55:41;99865.58;;;4.36;100.00
18755;BME280;35061;47.664;9.166;2024-02-23T02:58:13;99878.79;;;4.39;100.00
18755;BME280;35061;47.664;9.166;2024-02-23T03:00:42;99873.13;;;4.39;100.00
18755;BME280;35061;47.664;9.166;2024-02-23T03:03:10;99868.09;;;4.43;100.00
18755;BME280;35061;47.664;9.166;2024-02-23T03:05:39;99865.12;;;4.47;100.00
18755;BME280;35061;47.664;9.166;2024-02-23T03:08:07;99875.48;;;4.50;100.00
18755;BME280;35061;47.664;9.166;2024-02-23T03:10:35;99875.02;;;4.52;100.00
18755;BME280;35061;47.664;9.166;2024-02-23T03:13:04;99883.37;;;4.55;100.00
18755;BME280;35061;47.664;9.166;2024-02-23T03:15:31;99874.99;;;4.61;100.00
18755;BME280;35061;47.664;9.166;2024-02-23T03:18:01;99862.73;;;4.64;100.00
18755;BME280;35061;47.664;9.166;2024-02-23T03:20:30;99865.41;;;4.68;100.00
18755;BME280;35061;47.664;9.166;2024-02-23T03:22:58;99853.09;;;4.71;100.00
18755;BME280;35061;47.664;9.166;2024-02-23T03:25:26;99843.63;;;4.74;100.00
18755;BME280;35061;47.664;9.166;2024-02-23T03:27:54;99834.48;;;4.79;100.00
18755;BME280;35061;47.664;9.166;2024-02-23T03:30:22;99842.65;;;4.77;100.00
18755;BME280;35061;47.664;9.166;2024-02-23T03:32:50;99841.73;;;4.80;100.00
18755;BME280;35061;47.664;9.166;2024-02-23T03:35:18;99858.74;;;4.80;100.00
18755;BME280;35061;47.664;9.166;2024-02-23T03:37:46;99857.79;;;4.83;100.00
18755;BME280;35061;47.664;9.166;2024-02-23T03:40:14;99860.64;;;4.83;100.00
18755;BME280;35061;47.664;9.166;2024-02-23T03:42:43;99858.09;;;4.85;100.00
18755;BME280;35061;47.664;9.166;2024-02-23T03:45:11;99873.23;;;4.92;100.00
18755;BME280;35061;47.664;9.166;2024-02-23T03:47:39;99871.79;;;4.96;100.00
18755;BME280;35061;47.664;9.166;2024-02-23T03:50:09;99868.45;;;4.98;100.00
18755;BME280;35061;47.664;9.166;2024-02-23T03:52:37;99858.52;;;5.02;100.00
18755;BME280;35061;47.664;9.166;2024-02-23T03:55:05;99851.09;;;5.05;100.00
18755;BME280;35061;47.664;9.166;2024-02-23T03:57:33;99847.49;;;5.05;100.00
18755;BME280;35061;47.664;9.166;2024-02-23T04:00:02;99842.29;;;5.03;100.00
18755;BME280;35061;47.664;9.166;2024-02-23T04:02:30;99841.18;;;5.00;100.00
18755;BME280;35061;47.664;9.166;2024-02-23T04:04:58;99840.07;;;4.98;100.00
18755;BME280;35061;47.664;9.166;2024-02-23T04:07:26;99839.16;;;5.01;100.00
18755;BME280;35061;47.664;9.166;2024-02-23T04:09:54;99825.87;;;4.98;100.00
18755;BME280;35061;47.664;9.166;2024-02-23T04:12:23;99826.99;;;5.00;100.00
18755;BME280;35061;47.664;9.166;2024-02-23T04:14:51;99825.26;;;5.03;100.00
18755;BME280;35061;47.664;9.166;2024-02-23T04:17:18;99837.39;;;5.03;100.00
18755;BME280;35061;47.664;9.166;2024-02-23T04:19:46;99835.03;;;5.02;100.00
18755;BME280;35061;47.664;9.166;2024-02-23T04:22:15;99833.46;;;5.01;100.00
18755;BME280;35061;47.664;9.166;2024-02-23T04:24:43;99821.01;;;4.98;100.00
18755;BME280;35061;47.664;9.166;2024-02-23T04:27:11;99823.06;;;4.98;100.00
18755;BME280;35061;47.664;9.166;2024-02-23T04:29:39;99829.84;;;5.00;100.00
18755;BME280;35061;47.664;9.166;2024-02-23T04:32:07;99821.33;;;4.91;100.00
18755;BME280;35061;47.664;9.166;2024-02-23T04:34:35;99818.03;;;4.93;100.00
18755;BME280;35061;47.664;9.166;2024-02-23T04:37:04;99831.57;;;4.98;100.00
18755;BME280;35061;47.664;9.166;2024-02-23T04:39:32;99827.64;;;4.95;100.00
18755;BME280;35061;47.664;9.166;2024-02-23T04:42:00;99835.66;;;4.97;100.00
18755;BME280;35061;47.664;9.166;2024-02-23T04:44:28;99827.97;;;4.97;100.00
18755;BME280;35061;47.664;9.166;2024-02-23T04:46:56;99830.00;;;4.97;100.00
18755;BME280;35061;47.664;9.166;2024-02-23T04:49:24;99823.72;;;4.93;100.00
18755;BME280;35061;47.664;9.166;2024-02-23T04:51:52;99817.24;;;4.92;100.00
18755;BME280;35061;47.664;9.166;2024-02-23T04:54:20;99820.58;;;4.91;100.00
18755;BME280;35061;47.664;9.166;2024-02-23T04:56:48;99821.04;;;4.89;100.00
18755;BME280;35061;47.664;9.166;2024-02-23T04:59:17;99836.96;;;4.86;100.00
18755;BME280;35061;47.664;9.166;2024-02-23T05:01:46;99841.73;;;4.80;100.00
18755;BME280;35061;47.664;9.166;2024-02-23T05:04:15;99858.58;;;4.84;100.00
18755;BME280;35061;47.664;9.166;2024-02-23T05:06:42;99856.06;;;4.86;100.00
18755;BME280;35061;47.664;9.166;2024-02-23T05:09:11;99857.34;;;4.85;100.00
18755;BME280;35061;47.664;9.166;2024-02-23T05:11:39;99862.80;;;4.88;100.00
18755;BME280;35061;47.664;9.166;2024-02-23T05:14:07;99860.31;;;4.91;100.00
18755;BME280;35061;47.664;9.166;2024-02-23T05:16:36;99854.91;;;4.93;100.00
18755;BME280;35061;47.664;9.166;2024-02-23T05:19:04;99849.55;;;4.95;100.00
18755;BME280;35061;47.664;9.166;2024-02-23T05:21:32;99857.11;;;4.98;100.00
18755;BME280;35061;47.664;9.166;2024-02-23T05:24:01;99852.07;;;5.02;100.00
18755;BME280;35061;47.664;9.166;2024-02-23T05:26:29;99842.29;;;5.03;100.00
18755;BME280;35061;47.664;9.166;2024-02-23T05:28:57;99834.25;;;5.01;100.00
18755;BME280;35061;47.664;9.166;2024-02-23T05:31:45;99821.01;;;4.98;100.00
18755;BME280;35061;47.664;9.166;2024-02-23T05:34:14;99823.06;;;4.98;100.00
18755;BME280;35061;47.664;9.166;2024-02-23T05:36:43;99830.78;;;4.97;100.00
18755;BME280;35061;47.664;9.166;2024-02-23T05:39:11;99832.38;;;4.89;100.00
18755;BME280;35061;47.664;9.166;2024-02-23T05:41:41;99828.46;;;4.86;100.00
18755;BME280;35061;47.664;9.166;2024-02-23T05:44:09;99821.49;;;4.87;100.00
18755;BME280;35061;47.664;9.166;2024-02-23T05:46:37;99831.80;;;4.85;100.00
18755;BME280;35061;47.664;9.166;2024-02-23T05:49:05;99835.39;;;4.85;100.00
18755;BME280;35061;47.664;9.166;2024-02-23T05:51:34;99834.77;;;4.81;100.00
18755;BME280;35061;47.664;9.166;2024-02-23T05:54:03;99828.46;;;4.77;100.00
18755;BME280;35061;47.664;9.166;2024-02-23T05:56:31;99836.67;;;4.75;100.00
18755;BME280;35061;47.664;9.166;2024-02-23T05:58:59;99833.53;;;4.73;100.00
18755;BME280;35061;47.664;9.166;2024-02-23T06:01:27;99838.23;;;4.76;100.00
18755;BME280;35061;47.664;9.166;2024-02-23T06:03:54;99836.99;;;4.77;100.00
18755;BME280;35061;47.664;9.166;2024-02-23T06:06:23;99831.14;;;4.81;100.00
18755;BME280;35061;47.664;9.166;2024-02-23T06:08:51;99822.02;;;4.86;100.00
18755;BME280;35061;47.664;9.166;2024-02-23T06:11:19;99821.85;;;4.89;100.00
18755;BME280;35061;47.664;9.166;2024-02-23T06:13:47;99811.88;;;4.94;100.00
18755;BME280;35061;47.664;9.166;2024-02-23T06:16:15;99804.95;;;4.95;100.00
18755;BME280;35061;47.664;9.166;2024-02-23T06:18:43;99810.93;;;4.97;100.00
18755;BME280;35061;47.664;9.166;2024-02-23T06:21:15;99810.93;;;4.97;100.00
18755;BME280;35061;47.664;9.166;2024-02-23T06:23:44;99826.70;;;4.98;100.00
18755;BME280;35061;47.664;9.166;2024-02-23T06:26:12;99832.98;;;5.02;100.00
18755;BME280;35061;47.664;9.166;2024-02-23T06:28:40;99837.23;;;5.07;100.00
18755;BME280;35061;47.664;9.166;2024-02-23T06:31:12;99848.08;;;5.09;100.00
18755;BME280;35061;47.664;9.166;2024-02-23T06:33:40;99843.83;;;5.13;100.00
18755;BME280;35061;47.664;9.166;2024-02-23T06:36:11;99844.12;;;5.15;100.00
18755;BME280;35061;47.664;9.166;2024-02-23T06:38:39;99831.96;;;5.15;100.00
18755;BME280;35061;47.664;9.166;2024-02-23T06:41:07;99826.63;;;5.17;100.00
18755;BME280;35061;47.664;9.166;2024-02-23T06:43:36;99826.11;;;5.19;100.00
18755;BME280;35061;47.664;9.166;2024-02-23T06:46:07;99829.60;;;5.23;100.00
18755;BME280;35061;47.664;9.166;2024-02-23T06:48:36;99834.61;;;5.28;100.00
18755;BME280;35061;47.664;9.166;2024-02-23T06:51:05;99843.41;;;5.30;100.00
18755;BME280;35061;47.664;9.166;2024-02-23T06:53:37;99848.15;;;5.33;100.00
18755;BME280;35061;47.664;9.166;2024-02-23T06:56:06;99851.61;;;5.37;100.00
18755;BME280;35061;47.664;9.166;2024-02-23T06:58:34;99858.38;;;5.40;100.00
18755;BME280;35061;47.664;9.166;2024-02-23T07:01:03;99864.07;;;5.40;100.00
18755;BME280;35061;47.664;9.166;2024-02-23T07:03:33;99862.30;;;5.42;100.00
18755;BME280;35061;47.664;9.166;2024-02-23T07:06:03;99853.48;;;5.40;100.00
18755;BME280;35061;47.664;9.166;2024-02-23T07:08:31;99846.38;;;5.36;100.00
18755;BME280;35061;47.664;9.166;2024-02-23T07:10:59;99855.41;;;5.34;100.00
18755;BME280;35061;47.664;9.166;2024-02-23T07:13:28;99855.86;;;5.33;100.00
18755;BME280;35061;47.664;9.166;2024-02-23T07:15:56;99859.52;;;5.33;100.00
18755;BME280;35061;47.664;9.166;2024-02-23T07:18:26;99866.75;;;5.34;100.00
18755;BME280;35061;47.664;9.166;2024-02-23T07:20:54;99857.76;;;5.36;100.00
18755;BME280;35061;47.664;9.166;2024-02-23T07:23:22;99848.44;;;5.35;100.00
18755;BME280;35061;47.664;9.166;2024-02-23T07:25:50;99854.75;;;5.39;100.00
18755;BME280;35061;47.664;9.166;2024-02-23T07:28:18;99867.99;;;5.42;100.00
18755;BME280;35061;47.664;9.166;2024-02-23T07:30:47;99881.70;;;5.44;100.00
18755;BME280;35061;47.664;9.166;2024-02-23T07:33:15;99871.92;;;5.45;100.00
18755;BME280;35061;47.664;9.166;2024-02-23T07:35:43;99890.03;;;5.48;100.00
18755;BME280;35061;47.664;9.166;2024-02-23T07:38:11;99894.45;;;5.49;100.00
18755;BME280;35061;47.664;9.166;2024-02-23T07:40:39;99895.40;;;5.55;100.00
18755;BME280;35061;47.664;9.166;2024-02-23T07:43:07;99889.02;;;5.60;100.00
18755;BME280;35061;47.664;9.166;2024-02-23T07:45:38;99883.98;;;5.64;100.00
18755;BME280;35061;47.664;9.166;2024-02-23T07:48:06;99882.22;;;5.67;100.00
18755;BME280;35061;47.664;9.166;2024-02-23T07:50:36;99879.18;;;5.70;100.00
18755;BME280;35061;47.664;9.166;2024-02-23T07:53:04;99879.48;;;5.72;100.00
18755;BME280;35061;47.664;9.166;2024-02-23T07:55:32;99886.27;;;5.75;100.00
18755;BME280;35061;47.664;9.166;2024-02-23T07:58:00;99892.06;;;5.81;100.00
18755;BME280;35061;47.664;9.166;2024-02-23T08:00:29;99879.93;;;5.80;100.00
18755;BME280;35061;47.664;9.166;2024-02-23T08:02:57;99874.50;;;5.92;100.00
18755;BME280;35061;47.664;9.166;2024-02-23T08:05:25;99865.54;;;5.84;100.00
18755;BME280;35061;47.664;9.166;2024-02-23T08:07:53;99855.14;;;5.81;100.00
18755;BME280;35061;47.664;9.166;2024-02-23T08:10:21;99866.69;;;5.77;100.00
18755;BME280;35061;47.664;9.166;2024-02-23T08:12:49;99876.98;;;5.75;100.00
18755;BME280;35061;47.664;9.166;2024-02-23T08:15:17;99882.65;;;5.75;100.00
18755;BME280;35061;47.664;9.166;2024-02-23T08:17:45;99882.58;;;5.84;100.00
18755;BME280;35061;47.664;9.166;2024-02-23T08:20:14;99867.54;;;5.93;100.00
18755;BME280;35061;47.664;9.166;2024-02-23T08:22:42;99876.17;;;5.98;100.00
18755;BME280;35061;47.664;9.166;2024-02-23T08:25:10;99875.55;;;6.04;100.00
18755;BME280;35061;47.664;9.166;2024-02-23T08:27:41;99880.06;;;6.10;100.00
18755;BME280;35061;47.664;9.166;2024-02-23T08:30:09;99878.13;;;6.17;100.00
18755;BME280;35061;47.664;9.166;2024-02-23T08:32:38;99875.88;;;6.21;100.00
18755;BME280;35061;47.664;9.166;2024-02-23T08:35:07;99872.87;;;6.24;100.00
18755;BME280;35061;47.664;9.166;2024-02-23T08:37:36;99876.30;;;6.28;100.00
18755;BME280;35061;47.664;9.166;2024-02-23T08:40:04;99873.75;;;6.31;100.00
18755;BME280;35061;47.664;9.166;2024-02-23T08:42:33;99872.48;;;6.32;100.00
18755;BME280;35061;47.664;9.166;2024-02-23T08:45:02;99866.10;;;6.37;100.00
18755;BME280;35061;47.664;9.166;2024-02-23T08:47:30;99869.56;;;6.41;100.00
18755;BME280;35061;47.664;9.166;2024-02-23T08:50:01;99868.59;;;6.44;100.00
18755;BME280;35061;47.664;9.166;2024-02-23T08:52:30;99865.25;;;6.46;100.00
18755;BME280;35061;47.664;9.166;2024-02-23T08:54:58;99863.19;;;6.46;100.00
18755;BME280;35061;47.664;9.166;2024-02-23T08:57:28;99863.19;;;6.46;100.00
18755;BME280;35061;47.664;9.166;2024-02-23T08:59:55;99859.76;;;6.42;100.00
18755;BME280;35061;47.664;9.166;2024-02-23T09:02:25;99858.19;;;6.41;100.00
18755;BME280;35061;47.664;9.166;2024-02-23T09:04:53;99861.52;;;6.39;100.00
18755;BME280;35061;47.664;9.166;2024-02-23T09:07:22;99864.66;;;6.41;100.00
18755;BME280;35061;47.664;9.166;2024-02-23T09:09:50;99861.32;;;6.43;100.00
18755;BME280;35061;47.664;9.166;2024-02-23T09:12:18;99861.62;;;6.45;100.00
18755;BME280;35061;47.664;9.166;2024-02-23T09:14:47;99870.16;;;6.45;100.00
18755;BME280;35061;47.664;9.166;2024-02-23T09:17:15;99857.83;;;6.48;100.00
18755;BME280;35061;47.664;9.166;2024-02-23T09:19:43;99861.26;;;6.52;100.00
18755;BME280;35061;47.664;9.166;2024-02-23T09:22:11;99885.39;;;6.57;100.00
18755;BME280;35061;47.664;9.166;2024-02-23T09:24:40;99862.14;;;6.59;100.00
18755;BME280;35061;47.664;9.166;2024-02-23T09:27:10;99867.05;;;6.58;100.00
18755;BME280;35061;47.664;9.166;2024-02-23T09:29:40;99870.97;;;6.61;100.00
18755;BME280;35061;47.664;9.166;2024-02-23T09:32:08;99870.35;;;6.56;99.04
18755;BME280;35061;47.664;9.166;2024-02-23T09:34:37;99873.20;;;6.56;100.00
18755;BME280;35061;47.664;9.166;2024-02-23T09:37:05;99871.36;;;6.53;99.46
18755;BME280;35061;47.664;9.166;2024-02-23T09:39:32;99865.94;;;6.55;100.00
18755;BME280;35061;47.664;9.166;2024-02-23T09:42:01;99870.25;;;6.51;99.60
18755;BME280;35061;47.664;9.166;2024-02-23T09:44:32;99874.90;;;6.48;98.13
18755;BME280;35061;47.664;9.166;2024-02-23T09:47:04;99860.34;;;6.46;98.20
18755;BME280;35061;47.664;9.166;2024-02-23T09:49:40;99862.89;;;6.44;96.28
18755;BME280;35061;47.664;9.166;2024-02-23T09:52:08;99863.09;;;6.40;96.32
18755;BME280;35061;47.664;9.166;2024-02-23T09:54:39;99854.85;;;6.42;97.44
18755;BME280;35061;47.664;9.166;2024-02-23T09:57:08;99859.55;;;6.46;96.78
18755;BME280;35061;47.664;9.166;2024-02-23T09:59:37;99863.52;;;6.48;97.25
18755;BME280;35061;47.664;9.166;2024-02-23T10:02:09;99856.02;;;6.51;96.61
18755;BME280;35061;47.664;9.166;2024-02-23T10:04:43;99857.92;;;6.54;96.74
18755;BME280;35061;47.664;9.166;2024-02-23T10:07:15;99854.59;;;6.55;96.43
18755;BME280;35061;47.664;9.166;2024-02-23T10:09:46;99864.98;;;6.59;96.30
18755;BME280;35061;47.664;9.166;2024-02-23T10:12:15;99861.16;;;6.62;95.86
18755;BME280;35061;47.664;9.166;2024-02-23T10:14:44;99866.85;;;6.62;94.61
18755;BME280;35061;47.664;9.166;2024-02-23T10:17:12;99860.96;;;6.65;94.88
18755;BME280;35061;47.664;9.166;2024-02-23T10:19:40;99860.48;;;6.67;95.10
18755;BME280;35061;47.664;9.166;2024-02-23T10:22:08;99858.71;;;6.69;94.31
18755;BME280;35061;47.664;9.166;2024-02-23T10:24:36;99850.77;;;6.74;94.39
18755;BME280;35061;47.664;9.166;2024-02-23T10:27:05;99858.80;;;6.75;94.02
18755;BME280;35061;47.664;9.166;2024-02-23T10:29:32;99851.55;;;6.74;93.08
18755;BME280;35061;47.664;9.166;2024-02-23T10:32:01;99852.73;;;6.82;93.25
18755;BME280;35061;47.664;9.166;2024-02-23T10:34:29;99864.40;;;6.84;92.93
18755;BME280;35061;47.664;9.166;2024-02-23T10:36:59;99861.09;;;6.86;92.48
18755;BME280;35061;47.664;9.166;2024-02-23T10:39:29;99858.80;;;6.90;91.70
18755;BME280;35061;47.664;9.166;2024-02-23T10:41:58;99850.77;;;6.89;90.06
18755;BME280;35061;47.664;9.166;2024-02-23T10:44:28;99843.02;;;6.89;89.40
18755;BME280;35061;47.664;9.166;2024-02-23T10:46:58;99853.94;;;6.91;89.87
18755;BME280;35061;47.664;9.166;2024-02-23T10:49:27;99862.73;;;6.93;89.08
18755;BME280;35061;47.664;9.166;2024-02-23T10:51:56;99863.81;;;6.95;88.82
18755;BME280;35061;47.664;9.166;2024-02-23T10:54:25;99862.05;;;6.98;88.34
18755;BME280;35061;47.664;9.166;2024-02-23T10:56:53;99854.30;;;6.98;87.32
18755;BME280;35061;47.664;9.166;2024-02-23T10:59:23;99856.45;;;7.04;87.46
18755;BME280;35061;47.664;9.166;2024-02-23T11:01:53;99862.73;;;7.08;87.32
18755;BME280;35061;47.664;9.166;2024-02-23T11:04:22;99866.06;;;7.06;87.10
18755;BME280;35061;47.664;9.166;2024-02-23T11:06:56;99867.93;;;7.09;86.74
18755;BME280;35061;47.664;9.166;2024-02-23T11:09:32;99854.49;;;7.10;86.35
18755;BME280;35061;47.664;9.166;2024-02-23T11:12:03;99858.09;;;7.10;86.56
18755;BME280;35061;47.664;9.166;2024-02-23T11:14:35;99847.03;;;7.12;85.31
18755;BME280;35061;47.664;9.166;2024-02-23T11:17:04;99850.17;;;7.15;85.69
18755;BME280;35061;47.664;9.166;2024-02-23T11:19:37;99850.73;;;7.19;85.62
18755;BME280;35061;47.664;9.166;2024-02-23T11:22:09;99837.48;;;7.16;84.45
18755;BME280;35061;47.664;9.166;2024-02-23T11:24:49;99845.83;;;7.19;84.52
18755;BME280;35061;47.664;9.166;2024-02-23T11:27:24;99845.04;;;7.19;81.91
18755;BME280;35061;47.664;9.166;2024-02-23T11:30:05;99841.18;;;7.22;83.34
18755;BME280;35061;47.664;9.166;2024-02-23T11:32:47;99840.49;;;7.27;81.91
18755;BME280;35061;47.664;9.166;2024-02-23T11:35:17;99834.31;;;7.29;82.89
18755;BME280;35061;47.664;9.166;2024-02-23T11:37:53;99832.84;;;7.33;83.72
18755;BME280;35061;47.664;9.166;2024-02-23T11:40:32;99830.55;;;7.37;83.31
18755;BME280;35061;47.664;9.166;2024-02-23T11:43:01;99838.99;;;7.47;83.52
18755;BME280;35061;47.664;9.166;2024-02-23T11:45:30;99835.13;;;7.50;83.33
18755;BME280;35061;47.664;9.166;2024-02-23T11:47:58;99843.02;;;7.55;82.93
18755;BME280;35061;47.664;9.166;2024-02-23T11:50:27;99838.14;;;7.61;83.10
18755;BME280;35061;47.664;9.166;2024-02-23T11:52:55;99837.45;;;7.66;81.91
18755;BME280;35061;47.664;9.166;2024-02-23T11:55:26;99841.67;;;7.71;81.82
18755;BME280;35061;47.664;9.166;2024-02-23T11:57:54;99837.26;;;7.70;80.33
18755;BME280;35061;47.664;9.166;2024-02-23T12:00:33;99834.97;;;7.74;81.52
18755;BME280;35061;47.664;9.166;2024-02-23T12:03:03;99826.50;;;7.80;81.42
18755;BME280;35061;47.664;9.166;2024-02-23T12:05:33;99828.13;;;7.87;81.68
18755;BME280;35061;47.664;9.166;2024-02-23T12:08:01;99819.56;;;7.87;81.51
18755;BME280;35061;47.664;9.166;2024-02-23T12:10:29;99811.29;;;7.89;81.67
18755;BME280;35061;47.664;9.166;2024-02-23T12:12:58;99812.57;;;7.88;81.43
18755;BME280;35061;47.664;9.166;2024-02-23T12:15:26;99817.21;;;7.85;81.11
18755;BME280;35061;47.664;9.166;2024-02-23T12:17:58;99804.55;;;7.86;81.01
18755;BME280;35061;47.664;9.166;2024-02-23T12:20:28;99798.84;;;7.86;80.92
18755;BME280;35061;47.664;9.166;2024-02-23T12:22:56;99806.12;;;7.87;80.89
18755;BME280;35061;47.664;9.166;2024-02-23T12:25:24;99789.97;;;7.84;80.33
18755;BME280;35061;47.664;9.166;2024-02-23T12:27:56;99792.85;;;7.84;80.66
18755;BME280;35061;47.664;9.166;2024-02-23T12:30:27;99797.56;;;7.87;79.60
18755;BME280;35061;47.664;9.166;2024-02-23T12:33:06;99803.02;;;7.91;79.72
18755;BME280;35061;47.664;9.166;2024-02-23T12:35:35;99800.96;;;7.91;79.00
18755;BME280;35061;47.664;9.166;2024-02-23T12:38:04;99796.61;;;7.96;79.52
18755;BME280;35061;47.664;9.166;2024-02-23T12:40:32;99809.66;;;8.03;79.67
18755;BME280;35061;47.664;9.166;2024-02-23T12:43:00;99801.58;;;8.01;79.54
18755;BME280;35061;47.664;9.166;2024-02-23T12:45:28;99814.86;;;8.04;78.80
18755;BME280;35061;47.664;9.166;2024-02-23T12:47:56;99816.91;;;8.04;78.58
18755;BME280;35061;47.664;9.166;2024-02-23T12:50:24;99819.01;;;8.03;78.64
18755;BME280;35061;47.664;9.166;2024-02-23T12:52:52;99821.07;;;8.03;78.74
18755;BME280;35061;47.664;9.166;2024-02-23T12:55:20;99818.48;;;8.05;78.94
18755;BME280;35061;47.664;9.166;2024-02-23T12:57:48;99804.75;;;8.03;78.56
18755;BME280;35061;47.664;9.166;2024-02-23T13:00:16;99805.57;;;8.09;78.99
18755;BME280;35061;47.664;9.166;2024-02-23T13:02:44;99802.46;;;8.07;78.46
18755;BME280;35061;47.664;9.166;2024-02-23T13:05:13;99793.41;;;8.09;78.48
18755;BME280;35061;47.664;9.166;2024-02-23T13:07:41;99777.88;;;8.10;78.31
18755;BME280;35061;47.664;9.166;2024-02-23T13:10:10;99770.38;;;8.13;78.35
18755;BME280;35061;47.664;9.166;2024-02-23T13:12:38;99778.20;;;8.18;78.20